ムンバイ の空港の天気 - METARとTAF

チャットラパティー・シヴァージー国際空港 ( VABB / BOM ) - インド ムンバイ
飛行場実況気象(Metar)
観測時間02/01 04:30 IST (01/31 23:00 UTC)
風向・風速東北東 4m/s
視程2500m
天気現象
なし
気温26℃
湿度54%
気圧1010hPa
METARVABB 312300Z 06007KT 2500 FU NSC 26/16 Q1010 NOSIG
過去の天気等 Google飛行場航空写真 Wunderground天気予報

過去48時間のMETAR

飛行場予報(TAF)
発表時間: 2/01 04:30 IST (1/31 23:00 UTC)
予報対象時間: 1日5時 IST ~ 2日11時 IST
風向・風速不定 2m/s
視程2000m
天気現象もや 煙霧
少しの雲 雲底高度 3050m
1日5時 IST ~ 1日8時 IST に一時的に
視程1200m
天気現象もや 煙霧
1日8時 IST ~ 1日10時 IST に徐々に
風向・風速北北東 3m/s
視程2500m
天気現象煙霧 煙
少しの雲 雲底高度 610m
1日14時 IST ~ 1日16時 IST に徐々に
風向・風速北西 4m/s
視程3000m
天気現象煙霧 煙
なし
1日18時 IST ~ 1日20時 IST に徐々に
風向・風速北北東 3m/s
視程2500m
天気現象煙霧 煙
少しの雲 雲底高度 3050m
2日1時 IST ~ 2日3時 IST に徐々に
風向・風速不定 2m/s
視程2000m
天気現象煙霧 煙
なし
1日8時 IST ~ 1日10時 IST に徐々に
風向・風速北東 3m/s
視程2500m
天気現象煙霧 煙
TAF VABB 312300Z 0100/0206 VRB03KT 2000 BR HZ FEW100
TEMPO 0100/0103 1200 BR HZ
BECMG 0103/0105 03005KT 2500 HZ FU FEW020
BECMG 0109/0111 32008KT 3000 HZ FU NSC
BECMG 0113/0115 02006KT 2500 HZ FU FEW100
BECMG 0120/0122 VRB03KT 2000 HZ FU NSC
BECMG 0103/0105 05006KT 2500 HZ FU